sensor_id;sensor_type;location;lat;lon;timestamp;pressure;altitude;pressure_sealevel;temperature;humidity
8286;BME280;4181;43.416;24.598;2024-02-28T00:02:07;100523.91;;;9.76;100.00
8286;BME280;4181;43.416;24.598;2024-02-28T00:04:47;100529.97;;;9.89;100.00
8286;BME280;4181;43.416;24.598;2024-02-28T00:07:19;100522.13;;;9.93;100.00
8286;BME280;4181;43.416;24.598;2024-02-28T00:12:46;100536.72;;;10.10;100.00
8286;BME280;4181;43.416;24.598;2024-02-28T00:15:13;100529.72;;;10.14;100.00
8286;BME280;4181;43.416;24.598;2024-02-28T00:17:51;100529.59;;;9.86;100.00
8286;BME280;4181;43.416;24.598;2024-02-28T00:20:21;100536.19;;;9.55;100.00
8286;BME280;4181;43.416;24.598;2024-02-28T00:22:50;100547.22;;;9.49;100.00
8286;BME280;4181;43.416;24.598;2024-02-28T00:25:24;100558.47;;;9.52;100.00
8286;BME280;4181;43.416;24.598;2024-02-28T00:27:53;100556.34;;;9.54;100.00
8286;BME280;4181;43.416;24.598;2024-02-28T00:30:29;100554.31;;;9.50;100.00
8286;BME280;4181;43.416;24.598;2024-02-28T00:33:02;100565.97;;;9.27;100.00
8286;BME280;4181;43.416;24.598;2024-02-28T00:35:31;100536.50;;;9.24;100.00
8286;BME280;4181;43.416;24.598;2024-02-28T00:38:00;100559.75;;;9.50;100.00
8286;BME280;4181;43.416;24.598;2024-02-28T00:40:39;100545.75;;;9.35;100.00
8286;BME280;4181;43.416;24.598;2024-02-28T00:43:09;100571.44;;;9.27;100.00
8286;BME280;4181;43.416;24.598;2024-02-28T00:48:24;100552.59;;;8.66;100.00
8286;BME280;4181;43.416;24.598;2024-02-28T00:50:57;100558.66;;;8.50;100.00
8286;BME280;4181;43.416;24.598;2024-02-28T00:53:23;100557.44;;;8.46;100.00
8286;BME280;4181;43.416;24.598;2024-02-28T00:55:54;100553.31;;;8.26;100.00
8286;BME280;4181;43.416;24.598;2024-02-28T00:58:26;100548.84;;;8.31;100.00
8286;BME280;4181;43.416;24.598;2024-02-28T01:00:56;100549.75;;;8.25;100.00
8286;BME280;4181;43.416;24.598;2024-02-28T01:03:23;100553.69;;;8.47;100.00
8286;BME280;4181;43.416;24.598;2024-02-28T01:05:59;100555.31;;;8.48;100.00
8286;BME280;4181;43.416;24.598;2024-02-28T01:08:33;100541.50;;;8.50;100.00
8286;BME280;4181;43.416;24.598;2024-02-28T01:11:09;100556.19;;;8.78;100.00
8286;BME280;4181;43.416;24.598;2024-02-28T01:13:40;100557.34;;;8.53;100.00
8286;BME280;4181;43.416;24.598;2024-02-28T01:16:26;100568.34;;;8.64;100.00
8286;BME280;4181;43.416;24.598;2024-02-28T01:18:56;100568.09;;;8.66;100.00
8286;BME280;4181;43.416;24.598;2024-02-28T01:21:27;100581.91;;;8.82;100.00
8286;BME280;4181;43.416;24.598;2024-02-28T01:23:56;100576.13;;;8.61;100.00
8286;BME280;4181;43.416;24.598;2024-02-28T01:26:28;100579.66;;;8.79;100.00
8286;BME280;4181;43.416;24.598;2024-02-28T01:28:58;100575.84;;;8.80;100.00
8286;BME280;4181;43.416;24.598;2024-02-28T01:31:27;100567.00;;;8.85;100.00
8286;BME280;4181;43.416;24.598;2024-02-28T01:34:05;100577.59;;;8.75;100.00
8286;BME280;4181;43.416;24.598;2024-02-28T01:36:34;100580.38;;;8.14;100.00
8286;BME280;4181;43.416;24.598;2024-02-28T01:39:09;100565.41;;;7.62;100.00
8286;BME280;4181;43.416;24.598;2024-02-28T01:41:38;100583.22;;;7.77;100.00
8286;BME280;4181;43.416;24.598;2024-02-28T01:44:10;100595.72;;;7.84;100.00
8286;BME280;4181;43.416;24.598;2024-02-28T01:46:41;100586.03;;;7.88;100.00
8286;BME280;4181;43.416;24.598;2024-02-28T01:49:09;100590.47;;;8.07;100.00
8286;BME280;4181;43.416;24.598;2024-02-28T01:51:36;100592.81;;;8.22;100.00
8286;BME280;4181;43.416;24.598;2024-02-28T01:54:02;100592.69;;;7.92;100.00
8286;BME280;4181;43.416;24.598;2024-02-28T01:56:34;100569.44;;;7.96;100.00
8286;BME280;4181;43.416;24.598;2024-02-28T01:59:07;100575.34;;;8.11;100.00
8286;BME280;4181;43.416;24.598;2024-02-28T02:01:38;100585.25;;;8.30;100.00
8286;BME280;4181;43.416;24.598;2024-02-28T02:04:06;100583.97;;;8.33;100.00
8286;BME280;4181;43.416;24.598;2024-02-28T02:06:42;100586.53;;;8.21;100.00
8286;BME280;4181;43.416;24.598;2024-02-28T02:09:14;100590.44;;;8.32;100.00
8286;BME280;4181;43.416;24.598;2024-02-28T02:11:53;100597.66;;;8.44;100.00
8286;BME280;4181;43.416;24.598;2024-02-28T02:14:22;100593.41;;;8.48;100.00
8286;BME280;4181;43.416;24.598;2024-02-28T02:17:04;100594.63;;;8.52;100.00
8286;BME280;4181;43.416;24.598;2024-02-28T02:19:36;100604.66;;;8.09;100.00
8286;BME280;4181;43.416;24.598;2024-02-28T02:22:08;100601.88;;;7.91;100.00
8286;BME280;4181;43.416;24.598;2024-02-28T02:24:38;100587.50;;;7.66;100.00
8286;BME280;4181;43.416;24.598;2024-02-28T02:27:05;100591.53;;;7.57;100.00
8286;BME280;4181;43.416;24.598;2024-02-28T02:29:31;100584.13;;;7.39;100.00
8286;BME280;4181;43.416;24.598;2024-02-28T02:32:07;100593.06;;;7.78;100.00
8286;BME280;4181;43.416;24.598;2024-02-28T02:34:46;100605.47;;;7.67;100.00
8286;BME280;4181;43.416;24.598;2024-02-28T02:37:26;100605.50;;;7.85;100.00
8286;BME280;4181;43.416;24.598;2024-02-28T02:40:02;100597.28;;;7.92;100.00
8286;BME280;4181;43.416;24.598;2024-02-28T02:42:45;100611.09;;;7.90;100.00
8286;BME280;4181;43.416;24.598;2024-02-28T02:45:13;100610.09;;;8.09;100.00
8286;BME280;4181;43.416;24.598;2024-02-28T02:47:45;100596.84;;;8.19;100.00
8286;BME280;4181;43.416;24.598;2024-02-28T02:50:13;100607.16;;;8.35;100.00
8286;BME280;4181;43.416;24.598;2024-02-28T02:52:48;100605.97;;;8.49;100.00
8286;BME280;4181;43.416;24.598;2024-02-28T02:55:20;100620.34;;;8.32;100.00
8286;BME280;4181;43.416;24.598;2024-02-28T02:58:07;100618.75;;;8.00;100.00
8286;BME280;4181;43.416;24.598;2024-02-28T03:00:42;100631.53;;;7.68;100.00
8286;BME280;4181;43.416;24.598;2024-02-28T03:03:09;100622.97;;;7.71;100.00
8286;BME280;4181;43.416;24.598;2024-02-28T03:05:40;100638.38;;;7.52;100.00
8286;BME280;4181;43.416;24.598;2024-02-28T03:08:08;100648.66;;;7.44;100.00
8286;BME280;4181;43.416;24.598;2024-02-28T03:10:36;100645.78;;;7.63;100.00
8286;BME280;4181;43.416;24.598;2024-02-28T03:13:08;100641.66;;;7.86;100.00
8286;BME280;4181;43.416;24.598;2024-02-28T03:15:42;100646.09;;;8.05;100.00
8286;BME280;4181;43.416;24.598;2024-02-28T03:18:09;100660.63;;;8.17;100.00
8286;BME280;4181;43.416;24.598;2024-02-28T03:20:36;100654.16;;;8.18;100.00
8286;BME280;4181;43.416;24.598;2024-02-28T03:23:05;100661.41;;;7.99;100.00
8286;BME280;4181;43.416;24.598;2024-02-28T03:25:36;100663.41;;;7.86;100.00
8286;BME280;4181;43.416;24.598;2024-02-28T03:28:08;100672.34;;;7.93;100.00
8286;BME280;4181;43.416;24.598;2024-02-28T03:30:36;100669.28;;;7.83;100.00
8286;BME280;4181;43.416;24.598;2024-02-28T03:33:05;100662.56;;;7.85;100.00
8286;BME280;4181;43.416;24.598;2024-02-28T03:35:36;100674.44;;;7.91;100.00
8286;BME280;4181;43.416;24.598;2024-02-28T03:38:06;100670.09;;;7.83;100.00
8286;BME280;4181;43.416;24.598;2024-02-28T03:43:30;100653.69;;;7.96;100.00
8286;BME280;4181;43.416;24.598;2024-02-28T03:46:05;100663.09;;;7.69;100.00
8286;BME280;4181;43.416;24.598;2024-02-28T03:48:35;100666.69;;;7.94;100.00
8286;BME280;4181;43.416;24.598;2024-02-28T03:51:04;100668.50;;;8.00;100.00
8286;BME280;4181;43.416;24.598;2024-02-28T03:56:26;100681.53;;;7.60;100.00
8286;BME280;4181;43.416;24.598;2024-02-28T03:58:55;100678.25;;;7.52;100.00
8286;BME280;4181;43.416;24.598;2024-02-28T04:01:22;100675.75;;;7.50;100.00
8286;BME280;4181;43.416;24.598;2024-02-28T04:03:52;100670.72;;;7.54;100.00
8286;BME280;4181;43.416;24.598;2024-02-28T04:06:20;100673.63;;;7.59;100.00
8286;BME280;4181;43.416;24.598;2024-02-28T04:08:52;100671.88;;;7.71;100.00
8286;BME280;4181;43.416;24.598;2024-02-28T04:11:36;100659.38;;;7.63;100.00
8286;BME280;4181;43.416;24.598;2024-02-28T04:14:03;100658.44;;;7.76;100.00
8286;BME280;4181;43.416;24.598;2024-02-28T04:16:33;100669.22;;;7.89;100.00
8286;BME280;4181;43.416;24.598;2024-02-28T04:19:00;100668.88;;;7.79;100.00
8286;BME280;4181;43.416;24.598;2024-02-28T04:21:30;100650.09;;;7.78;100.00
8286;BME280;4181;43.416;24.598;2024-02-28T04:24:12;100647.66;;;7.94;100.00
8286;BME280;4181;43.416;24.598;2024-02-28T04:26:38;100657.19;;;8.03;100.00
8286;BME280;4181;43.416;24.598;2024-02-28T04:29:07;100658.31;;;7.96;100.00
8286;BME280;4181;43.416;24.598;2024-02-28T04:31:44;100652.78;;;7.46;100.00
8286;BME280;4181;43.416;24.598;2024-02-28T04:34:11;100659.34;;;7.39;100.00
8286;BME280;4181;43.416;24.598;2024-02-28T04:36:42;100636.03;;;7.56;100.00
8286;BME280;4181;43.416;24.598;2024-02-28T04:39:09;100651.75;;;7.79;100.00
8286;BME280;4181;43.416;24.598;2024-02-28T04:41:35;100644.03;;;8.00;100.00
8286;BME280;4181;43.416;24.598;2024-02-28T04:44:05;100658.34;;;7.89;100.00
8286;BME280;4181;43.416;24.598;2024-02-28T04:46:34;100664.44;;;7.85;100.00
8286;BME280;4181;43.416;24.598;2024-02-28T04:49:01;100660.19;;;7.95;100.00
8286;BME280;4181;43.416;24.598;2024-02-28T04:51:29;100660.72;;;7.79;100.00
8286;BME280;4181;43.416;24.598;2024-02-28T04:54:00;100643.66;;;7.97;100.00
8286;BME280;4181;43.416;24.598;2024-02-28T04:56:29;100661.00;;;8.20;100.00
8286;BME280;4181;43.416;24.598;2024-02-28T04:58:59;100653.69;;;8.21;100.00
8286;BME280;4181;43.416;24.598;2024-02-28T05:01:29;100649.16;;;8.39;100.00
8286;BME280;4181;43.416;24.598;2024-02-28T05:04:00;100663.09;;;8.43;100.00
8286;BME280;4181;43.416;24.598;2024-02-28T05:06:26;100659.50;;;8.49;100.00
8286;BME280;4181;43.416;24.598;2024-02-28T05:09:01;100662.59;;;8.34;100.00
8286;BME280;4181;43.416;24.598;2024-02-28T05:11:29;100658.81;;;8.11;100.00
8286;BME280;4181;43.416;24.598;2024-02-28T05:13:57;100650.59;;;8.17;100.00
8286;BME280;4181;43.416;24.598;2024-02-28T05:16:27;100651.56;;;8.29;100.00
8286;BME280;4181;43.416;24.598;2024-02-28T05:19:06;100645.81;;;8.37;100.00
8286;BME280;4181;43.416;24.598;2024-02-28T05:21:50;100642.28;;;8.55;100.00
8286;BME280;4181;43.416;24.598;2024-02-28T05:24:23;100662.75;;;8.57;100.00
8286;BME280;4181;43.416;24.598;2024-02-28T05:26:56;100660.66;;;8.59;100.00
8286;BME280;4181;43.416;24.598;2024-02-28T05:29:27;100659.59;;;8.78;100.00
8286;BME280;4181;43.416;24.598;2024-02-28T05:31:57;100654.75;;;8.80;100.00
8286;BME280;4181;43.416;24.598;2024-02-28T05:34:27;100652.13;;;8.74;100.00
8286;BME280;4181;43.416;24.598;2024-02-28T05:36:59;100672.50;;;8.83;100.00
8286;BME280;4181;43.416;24.598;2024-02-28T05:39:28;100684.22;;;8.83;100.00
8286;BME280;4181;43.416;24.598;2024-02-28T05:42:08;100680.75;;;8.76;100.00
8286;BME280;4181;43.416;24.598;2024-02-28T05:44:42;100678.63;;;8.78;100.00
8286;BME280;4181;43.416;24.598;2024-02-28T05:47:09;100685.22;;;8.89;100.00
8286;BME280;4181;43.416;24.598;2024-02-28T05:49:39;100688.69;;;8.96;100.00
8286;BME280;4181;43.416;24.598;2024-02-28T05:52:07;100677.88;;;9.08;100.00
8286;BME280;4181;43.416;24.598;2024-02-28T05:54:36;100682.16;;;9.15;100.00
8286;BME280;4181;43.416;24.598;2024-02-28T05:57:02;100667.22;;;9.06;100.00
8286;BME280;4181;43.416;24.598;2024-02-28T05:59:29;100678.69;;;9.08;100.00
8286;BME280;4181;43.416;24.598;2024-02-28T06:02:05;100666.09;;;8.95;100.00
8286;BME280;4181;43.416;24.598;2024-02-28T06:04:37;100655.44;;;8.94;100.00
8286;BME280;4181;43.416;24.598;2024-02-28T06:07:06;100664.50;;;9.06;100.00
8286;BME280;4181;43.416;24.598;2024-02-28T06:09:34;100660.94;;;9.06;100.00
8286;BME280;4181;43.416;24.598;2024-02-28T06:12:02;100661.22;;;9.16;100.00
8286;BME280;4181;43.416;24.598;2024-02-28T06:14:28;100660.16;;;9.17;100.00
8286;BME280;4181;43.416;24.598;2024-02-28T06:16:57;100658.09;;;9.30;100.00
8286;BME280;4181;43.416;24.598;2024-02-28T06:19:24;100658.56;;;9.27;100.00
8286;BME280;4181;43.416;24.598;2024-02-28T06:21:50;100661.06;;;9.29;100.00
8286;BME280;4181;43.416;24.598;2024-02-28T06:24:26;100658.94;;;9.31;100.00
8286;BME280;4181;43.416;24.598;2024-02-28T06:26:58;100675.41;;;9.36;100.00
8286;BME280;4181;43.416;24.598;2024-02-28T06:29:27;100688.97;;;9.24;100.00
8286;BME280;4181;43.416;24.598;2024-02-28T06:31:57;100676.09;;;9.31;100.00
8286;BME280;4181;43.416;24.598;2024-02-28T06:34:29;100684.19;;;9.38;100.00
8286;BME280;4181;43.416;24.598;2024-02-28T06:37:06;100691.22;;;9.27;100.00
8286;BME280;4181;43.416;24.598;2024-02-28T06:39:33;100679.22;;;9.17;100.00
8286;BME280;4181;43.416;24.598;2024-02-28T06:41:59;100697.50;;;9.28;100.00
8286;BME280;4181;43.416;24.598;2024-02-28T06:44:27;100686.91;;;9.20;100.00
8286;BME280;4181;43.416;24.598;2024-02-28T06:46:59;100682.47;;;9.25;100.00
8286;BME280;4181;43.416;24.598;2024-02-28T06:49:29;100683.91;;;9.10;100.00
8286;BME280;4181;43.416;24.598;2024-02-28T06:52:07;100686.78;;;9.15;100.00
8286;BME280;4181;43.416;24.598;2024-02-28T06:57:21;100667.94;;;9.13;100.00
8286;BME280;4181;43.416;24.598;2024-02-28T06:59:46;100672.88;;;9.23;100.00
8286;BME280;4181;43.416;24.598;2024-02-28T07:02:13;100687.66;;;9.27;100.00
8286;BME280;4181;43.416;24.598;2024-02-28T07:04:42;100680.91;;;9.00;100.00
8286;BME280;4181;43.416;24.598;2024-02-28T07:07:30;100663.38;;;8.77;100.00
8286;BME280;4181;43.416;24.598;2024-02-28T07:10:07;100684.13;;;8.54;100.00
8286;BME280;4181;43.416;24.598;2024-02-28T07:12:35;100673.00;;;8.37;100.00
8286;BME280;4181;43.416;24.598;2024-02-28T07:15:08;100658.66;;;8.48;100.00
8286;BME280;4181;43.416;24.598;2024-02-28T07:17:36;100652.38;;;8.48;100.00
8286;BME280;4181;43.416;24.598;2024-02-28T07:20:07;100652.03;;;8.62;100.00
8286;BME280;4181;43.416;24.598;2024-02-28T07:22:39;100659.91;;;8.70;100.00
8286;BME280;4181;43.416;24.598;2024-02-28T07:25:10;100669.09;;;9.06;100.00
8286;BME280;4181;43.416;24.598;2024-02-28T07:27:47;100674.84;;;9.16;100.00
8286;BME280;4181;43.416;24.598;2024-02-28T07:30:20;100661.09;;;9.11;100.00
8286;BME280;4181;43.416;24.598;2024-02-28T07:33:00;100677.34;;;9.17;100.00
8286;BME280;4181;43.416;24.598;2024-02-28T07:35:34;100680.09;;;9.29;100.00
8286;BME280;4181;43.416;24.598;2024-02-28T07:38:15;100671.66;;;9.48;100.00
8286;BME280;4181;43.416;24.598;2024-02-28T07:41:00;100684.75;;;9.40;100.00
8286;BME280;4181;43.416;24.598;2024-02-28T07:43:28;100675.31;;;9.42;100.00
8286;BME280;4181;43.416;24.598;2024-02-28T07:46:13;100679.72;;;9.55;100.00
8286;BME280;4181;43.416;24.598;2024-02-28T07:48:48;100688.28;;;9.88;100.00
8286;BME280;4181;43.416;24.598;2024-02-28T07:54:06;100692.72;;;9.41;100.00
8286;BME280;4181;43.416;24.598;2024-02-28T07:56:43;100688.19;;;9.65;100.00
8286;BME280;4181;43.416;24.598;2024-02-28T07:59:14;100687.00;;;9.61;100.00
8286;BME280;4181;43.416;24.598;2024-02-28T08:01:49;100692.91;;;9.58;100.00
8286;BME280;4181;43.416;24.598;2024-02-28T08:04:17;100682.44;;;9.73;100.00
8286;BME280;4181;43.416;24.598;2024-02-28T08:06:51;100671.53;;;9.73;100.00
8286;BME280;4181;43.416;24.598;2024-02-28T08:09:17;100684.59;;;9.53;100.00
8286;BME280;4181;43.416;24.598;2024-02-28T08:11:48;100689.28;;;9.75;100.00
8286;BME280;4181;43.416;24.598;2024-02-28T08:14:27;100679.41;;;10.04;100.00
8286;BME280;4181;43.416;24.598;2024-02-28T08:17:03;100671.63;;;10.19;100.00
8286;BME280;4181;43.416;24.598;2024-02-28T08:19:30;100674.72;;;10.46;100.00
8286;BME280;4181;43.416;24.598;2024-02-28T08:21:57;100674.25;;;10.60;100.00
8286;BME280;4181;43.416;24.598;2024-02-28T08:24:25;100675.56;;;10.69;100.00
8286;BME280;4181;43.416;24.598;2024-02-28T08:26:51;100686.59;;;10.74;100.00
8286;BME280;4181;43.416;24.598;2024-02-28T08:29:26;100672.31;;;10.84;100.00
8286;BME280;4181;43.416;24.598;2024-02-28T08:31:58;100691.63;;;11.05;100.00
8286;BME280;4181;43.416;24.598;2024-02-28T08:34:27;100688.78;;;11.52;100.00
8286;BME280;4181;43.416;24.598;2024-02-28T08:36:54;100692.06;;;11.82;100.00
8286;BME280;4181;43.416;24.598;2024-02-28T08:39:22;100701.97;;;11.99;100.00
8286;BME280;4181;43.416;24.598;2024-02-28T08:42:00;100703.72;;;12.22;100.00
8286;BME280;4181;43.416;24.598;2024-02-28T08:44:31;100714.91;;;12.53;100.00
8286;BME280;4181;43.416;24.598;2024-02-28T08:47:07;100713.03;;;12.54;100.00
8286;BME280;4181;43.416;24.598;2024-02-28T08:49:39;100717.03;;;12.30;100.00
8286;BME280;4181;43.416;24.598;2024-02-28T08:52:05;100718.41;;;12.16;100.00
8286;BME280;4181;43.416;24.598;2024-02-28T08:54:33;100718.94;;;11.85;100.00
8286;BME280;4181;43.416;24.598;2024-02-28T08:57:04;100720.91;;;11.73;100.00
8286;BME280;4181;43.416;24.598;2024-02-28T08:59:38;100712.66;;;12.01;100.00
8286;BME280;4181;43.416;24.598;2024-02-28T09:02:06;100717.66;;;12.37;100.00
8286;BME280;4181;43.416;24.598;2024-02-28T09:04:34;100714.38;;;12.51;100.00
8286;BME280;4181;43.416;24.598;2024-02-28T09:07:04;100723.19;;;12.09;100.00
8286;BME280;4181;43.416;24.598;2024-02-28T09:09:31;100709.78;;;12.07;100.00
8286;BME280;4181;43.416;24.598;2024-02-28T09:12:05;100720.97;;;12.55;100.00
8286;BME280;4181;43.416;24.598;2024-02-28T09:14:31;100712.81;;;12.77;100.00
8286;BME280;4181;43.416;24.598;2024-02-28T09:17:03;100714.63;;;13.05;100.00
8286;BME280;4181;43.416;24.598;2024-02-28T09:19:34;100714.19;;;13.34;100.00
8286;BME280;4181;43.416;24.598;2024-02-28T09:22:07;100718.38;;;13.63;100.00
8286;BME280;4181;43.416;24.598;2024-02-28T09:27:27;100726.53;;;14.07;100.00
8286;BME280;4181;43.416;24.598;2024-02-28T09:29:57;100733.72;;;14.39;100.00
8286;BME280;4181;43.416;24.598;2024-02-28T09:32:27;100737.94;;;14.52;100.00
8286;BME280;4181;43.416;24.598;2024-02-28T09:35:03;100722.53;;;14.87;100.00
8286;BME280;4181;43.416;24.598;2024-02-28T09:37:32;100728.53;;;15.31;100.00
8286;BME280;4181;43.416;24.598;2024-02-28T09:39:59;100731.97;;;15.53;100.00
8286;BME280;4181;43.416;24.598;2024-02-28T09:42:30;100730.09;;;15.59;100.00
8286;BME280;4181;43.416;24.598;2024-02-28T09:45:08;100739.78;;;15.86;100.00
8286;BME280;4181;43.416;24.598;2024-02-28T09:47:37;100729.41;;;16.13;100.00
8286;BME280;4181;43.416;24.598;2024-02-28T09:50:10;100734.97;;;16.49;100.00
8286;BME280;4181;43.416;24.598;2024-02-28T09:52:39;100725.84;;;16.83;100.00
8286;BME280;4181;43.416;24.598;2024-02-28T09:55:09;100719.69;;;17.11;100.00
8286;BME280;4181;43.416;24.598;2024-02-28T09:57:40;100716.56;;;17.43;100.00
8286;BME280;4181;43.416;24.598;2024-02-28T10:00:07;100720.63;;;17.71;100.00
8286;BME280;4181;43.416;24.598;2024-02-28T10:02:48;100712.66;;;17.64;100.00
8286;BME280;4181;43.416;24.598;2024-02-28T10:05:19;100710.16;;;17.62;100.00
8286;BME280;4181;43.416;24.598;2024-02-28T10:07:49;100716.50;;;17.63;100.00
8286;BME280;4181;43.416;24.598;2024-02-28T10:10:17;100716.72;;;16.83;100.00
8286;BME280;4181;43.416;24.598;2024-02-28T10:12:50;100711.56;;;17.55;100.00
8286;BME280;4181;43.416;24.598;2024-02-28T10:15:27;100700.28;;;18.00;100.00
8286;BME280;4181;43.416;24.598;2024-02-28T10:18:04;100695.53;;;18.11;100.00
8286;BME280;4181;43.416;24.598;2024-02-28T10:20:37;100677.63;;;17.98;100.00
8286;BME280;4181;43.416;24.598;2024-02-28T10:23:07;100685.34;;;18.01;100.00
8286;BME280;4181;43.416;24.598;2024-02-28T10:25:51;100682.06;;;18.33;100.00
8286;BME280;4181;43.416;24.598;2024-02-28T10:28:17;100662.97;;;18.41;100.00
8286;BME280;4181;43.416;24.598;2024-02-28T10:30:47;100668.53;;;17.59;100.00
8286;BME280;4181;43.416;24.598;2024-02-28T10:33:16;100685.91;;;16.61;100.00
8286;BME280;4181;43.416;24.598;2024-02-28T10:35:45;100676.41;;;17.17;100.00
8286;BME280;4181;43.416;24.598;2024-02-28T10:38:21;100678.22;;;17.41;100.00
8286;BME280;4181;43.416;24.598;2024-02-28T10:40:53;100676.03;;;17.38;100.00
8286;BME280;4181;43.416;24.598;2024-02-28T10:43:22;100659.75;;;17.47;100.00
8286;BME280;4181;43.416;24.598;2024-02-28T10:46:04;100652.72;;;17.69;100.00
8286;BME280;4181;43.416;24.598;2024-02-28T10:51:23;100643.31;;;17.76;100.00
8286;BME280;4181;43.416;24.598;2024-02-28T10:56:31;100640.00;;;17.74;100.00
8286;BME280;4181;43.416;24.598;2024-02-28T10:59:02;100632.44;;;17.89;100.00
8286;BME280;4181;43.416;24.598;2024-02-28T11:01:31;100635.84;;;17.71;100.00
8286;BME280;4181;43.416;24.598;2024-02-28T11:04:01;100625.91;;;17.75;100.00
8286;BME280;4181;43.416;24.598;2024-02-28T11:06:32;100627.78;;;17.80;100.00
8286;BME280;4181;43.416;24.598;2024-02-28T11:09:03;100622.88;;;18.10;100.00
8286;BME280;4181;43.416;24.598;2024-02-28T11:11:30;100625.84;;;18.19;100.00
8286;BME280;4181;43.416;24.598;2024-02-28T11:13:59;100616.34;;;17.96;100.00
8286;BME280;4181;43.416;24.598;2024-02-28T11:16:31;100606.66;;;18.04;100.00
8286;BME280;4181;43.416;24.598;2024-02-28T11:19:03;100613.53;;;18.35;100.00
8286;BME280;4181;43.416;24.598;2024-02-28T11:21:35;100615.38;;;18.16;100.00
8286;BME280;4181;43.416;24.598;2024-02-28T11:24:14;100605.84;;;17.98;100.00
8286;BME280;4181;43.416;24.598;2024-02-28T11:26:48;100613.88;;;17.95;100.00
8286;BME280;4181;43.416;24.598;2024-02-28T11:29:24;100605.47;;;18.10;100.00
8286;BME280;4181;43.416;24.598;2024-02-28T11:31:51;100602.06;;;18.51;100.00
8286;BME280;4181;43.416;24.598;2024-02-28T11:34:28;100584.56;;;18.61;100.00
8286;BME280;4181;43.416;24.598;2024-02-28T11:36:54;100586.09;;;18.72;100.00
8286;BME280;4181;43.416;24.598;2024-02-28T11:39:26;100582.31;;;18.86;100.00
8286;BME280;4181;43.416;24.598;2024-02-28T11:41:55;100578.22;;;18.60;100.00
8286;BME280;4181;43.416;24.598;2024-02-28T11:44:47;100573.53;;;19.03;100.00
8286;BME280;4181;43.416;24.598;2024-02-28T11:47:24;100565.63;;;19.39;100.00
8286;BME280;4181;43.416;24.598;2024-02-28T11:49:51;100556.44;;;19.20;100.00
8286;BME280;4181;43.416;24.598;2024-02-28T11:52:34;100558.97;;;18.98;100.00
8286;BME280;4181;43.416;24.598;2024-02-28T11:55:08;100560.47;;;19.09;100.00
8286;BME280;4181;43.416;24.598;2024-02-28T11:57:46;100562.56;;;19.17;100.00
8286;BME280;4181;43.416;24.598;2024-02-28T12:00:16;100553.56;;;18.64;100.00
8286;BME280;4181;43.416;24.598;2024-02-28T12:02:45;100543.69;;;18.81;100.00
8286;BME280;4181;43.416;24.598;2024-02-28T12:05:12;100547.31;;;19.01;100.00
8286;BME280;4181;43.416;24.598;2024-02-28T12:07:42;100543.66;;;19.24;100.00
8286;BME280;4181;43.416;24.598;2024-02-28T12:10:11;100545.03;;;19.45;100.00
8286;BME280;4181;43.416;24.598;2024-02-28T12:12:43;100549.53;;;19.41;100.00
8286;BME280;4181;43.416;24.598;2024-02-28T12:15:20;100549.91;;;19.34;100.00
8286;BME280;4181;43.416;24.598;2024-02-28T12:17:52;100545.25;;;19.48;100.00
8286;BME280;4181;43.416;24.598;2024-02-28T12:20:17;100551.03;;;19.10;100.00
8286;BME280;4181;43.416;24.598;2024-02-28T12:22:43;100557.50;;;19.24;100.00
8286;BME280;4181;43.416;24.598;2024-02-28T12:25:09;100544.78;;;19.04;100.00
8286;BME280;4181;43.416;24.598;2024-02-28T12:27:51;100537.53;;;18.84;100.00
8286;BME280;4181;43.416;24.598;2024-02-28T12:30:19;100530.78;;;18.96;100.00
8286;BME280;4181;43.416;24.598;2024-02-28T12:32:51;100532.13;;;19.17;100.00
8286;BME280;4181;43.416;24.598;2024-02-28T12:35:32;100535.41;;;19.42;100.00
8286;BME280;4181;43.416;24.598;2024-02-28T12:38:04;100533.88;;;19.50;100.00
8286;BME280;4181;43.416;24.598;2024-02-28T12:40:42;100532.63;;;19.61;100.00
8286;BME280;4181;43.416;24.598;2024-02-28T12:43:15;100519.59;;;19.61;100.00
8286;BME280;4181;43.416;24.598;2024-02-28T12:45:43;100525.94;;;19.62;100.00
8286;BME280;4181;43.416;24.598;2024-02-28T12:48:09;100527.47;;;19.54;100.00
8286;BME280;4181;43.416;24.598;2024-02-28T12:50:39;100518.34;;;19.54;100.00
8286;BME280;4181;43.416;24.598;2024-02-28T12:53:05;100521.03;;;19.59;100.00
8286;BME280;4181;43.416;24.598;2024-02-28T12:55:31;100518.56;;;19.39;100.00
8286;BME280;4181;43.416;24.598;2024-02-28T12:57:58;100516.56;;;19.44;100.00
8286;BME280;4181;43.416;24.598;2024-02-28T13:00:26;100502.66;;;19.31;100.00
8286;BME280;4181;43.416;24.598;2024-02-28T13:02:55;100519.88;;;19.60;100.00
8286;BME280;4181;43.416;24.598;2024-02-28T13:05:23;100508.28;;;19.58;100.00
8286;BME280;4181;43.416;24.598;2024-02-28T13:07:55;100509.50;;;19.52;100.00
8286;BME280;4181;43.416;24.598;2024-02-28T13:10:29;100500.59;;;19.55;100.00
8286;BME280;4181;43.416;24.598;2024-02-28T13:13:02;100510.56;;;19.56;100.00
8286;BME280;4181;43.416;24.598;2024-02-28T13:15:27;100497.75;;;19.60;100.00
8286;BME280;4181;43.416;24.598;2024-02-28T13:18:11;100505.06;;;19.69;100.00
8286;BME280;4181;43.416;24.598;2024-02-28T13:20:37;100501.97;;;19.39;100.00
8286;BME280;4181;43.416;24.598;2024-02-28T13:23:07;100498.88;;;19.59;100.00
8286;BME280;4181;43.416;24.598;2024-02-28T13:25:43;100495.06;;;19.55;100.00
8286;BME280;4181;43.416;24.598;2024-02-28T13:28:13;100507.34;;;19.49;100.00
8286;BME280;4181;43.416;24.598;2024-02-28T13:30:47;100495.91;;;19.37;100.00
8286;BME280;4181;43.416;24.598;2024-02-28T13:33:18;100492.84;;;19.38;100.00
8286;BME280;4181;43.416;24.598;2024-02-28T13:35:53;100503.81;;;19.43;100.00
8286;BME280;4181;43.416;24.598;2024-02-28T13:38:28;100495.06;;;19.36;100.00
8286;BME280;4181;43.416;24.598;2024-02-28T13:41:03;100496.50;;;19.34;100.00
8286;BME280;4181;43.416;24.598;2024-02-28T13:43:33;100498.78;;;19.27;100.00